sensor_id;sensor_type;location;lat;lon;timestamp;P1;durP1;ratioP1;P2;durP2;ratioP2
22250;SDS011;59348;52.158;5.588;2023-05-10T00:00:26;31.77;;;23.67;;
22250;SDS011;59348;52.158;5.588;2023-05-10T00:02:53;32.80;;;25.02;;
22250;SDS011;59348;52.158;5.588;2023-05-10T00:05:20;37.42;;;26.38;;
22250;SDS011;59348;52.158;5.588;2023-05-10T00:07:48;36.58;;;26.65;;
22250;SDS011;59348;52.158;5.588;2023-05-10T00:10:15;34.67;;;24.83;;
22250;SDS011;59348;52.158;5.588;2023-05-10T00:12:42;33.47;;;25.05;;
22250;SDS011;59348;52.158;5.588;2023-05-10T00:15:11;34.05;;;25.17;;
22250;SDS011;59348;52.158;5.588;2023-05-10T00:17:38;35.85;;;26.10;;
22250;SDS011;59348;52.158;5.588;2023-05-10T00:20:05;34.42;;;26.48;;
22250;SDS011;59348;52.158;5.588;2023-05-10T00:22:33;36.63;;;26.88;;
22250;SDS011;59348;52.158;5.588;2023-05-10T00:25:00;35.38;;;27.52;;
22250;SDS011;59348;52.158;5.588;2023-05-10T00:27:28;40.08;;;26.85;;
22250;SDS011;59348;52.158;5.588;2023-05-10T00:29:55;33.50;;;25.63;;
22250;SDS011;59348;52.158;5.588;2023-05-10T00:32:24;38.38;;;27.77;;
22250;SDS011;59348;52.158;5.588;2023-05-10T00:34:51;40.50;;;28.45;;
22250;SDS011;59348;52.158;5.588;2023-05-10T00:37:20;39.03;;;28.83;;
22250;SDS011;59348;52.158;5.588;2023-05-10T00:39:47;42.85;;;30.85;;
22250;SDS011;59348;52.158;5.588;2023-05-10T00:42:14;45.08;;;31.60;;
22250;SDS011;59348;52.158;5.588;2023-05-10T00:44:41;47.80;;;33.45;;
22250;SDS011;59348;52.158;5.588;2023-05-10T00:47:09;50.85;;;34.33;;
22250;SDS011;59348;52.158;5.588;2023-05-10T00:49:38;48.63;;;33.78;;
22250;SDS011;59348;52.158;5.588;2023-05-10T00:52:05;54.72;;;36.25;;
22250;SDS011;59348;52.158;5.588;2023-05-10T00:54:32;59.13;;;37.22;;
22250;SDS011;59348;52.158;5.588;2023-05-10T00:57:00;65.53;;;40.00;;
22250;SDS011;59348;52.158;5.588;2023-05-10T00:59:28;61.28;;;38.15;;
22250;SDS011;59348;52.158;5.588;2023-05-10T01:01:55;68.13;;;39.97;;
22250;SDS011;59348;52.158;5.588;2023-05-10T01:04:23;64.07;;;40.63;;
22250;SDS011;59348;52.158;5.588;2023-05-10T01:06:52;67.65;;;40.17;;
22250;SDS011;59348;52.158;5.588;2023-05-10T01:09:19;67.82;;;41.30;;
22250;SDS011;59348;52.158;5.588;2023-05-10T01:11:46;67.07;;;41.75;;
22250;SDS011;59348;52.158;5.588;2023-05-10T01:14:14;65.00;;;40.63;;
22250;SDS011;59348;52.158;5.588;2023-05-10T01:16:41;67.50;;;41.95;;
22250;SDS011;59348;52.158;5.588;2023-05-10T01:19:10;73.25;;;44.88;;
22250;SDS011;59348;52.158;5.588;2023-05-10T01:21:43;84.90;;;46.42;;
22250;SDS011;59348;52.158;5.588;2023-05-10T01:24:17;87.47;;;47.45;;
22250;SDS011;59348;52.158;5.588;2023-05-10T01:26:56;87.05;;;47.80;;
22250;SDS011;59348;52.158;5.588;2023-05-10T01:32:22;93.63;;;49.08;;
22250;SDS011;59348;52.158;5.588;2023-05-10T01:34:54;93.97;;;49.17;;
22250;SDS011;59348;52.158;5.588;2023-05-10T01:37:25;98.22;;;49.33;;
22250;SDS011;59348;52.158;5.588;2023-05-10T01:39:58;102.18;;;51.00;;
22250;SDS011;59348;52.158;5.588;2023-05-10T01:42:29;95.35;;;50.25;;
22250;SDS011;59348;52.158;5.588;2023-05-10T01:45:00;94.40;;;49.40;;
22250;SDS011;59348;52.158;5.588;2023-05-10T01:47:30;94.90;;;48.70;;
22250;SDS011;59348;52.158;5.588;2023-05-10T01:50:01;92.35;;;48.92;;
22250;SDS011;59348;52.158;5.588;2023-05-10T01:52:30;105.00;;;50.65;;
22250;SDS011;59348;52.158;5.588;2023-05-10T01:55:00;94.18;;;49.50;;
22250;SDS011;59348;52.158;5.588;2023-05-10T01:57:31;92.53;;;49.65;;
22250;SDS011;59348;52.158;5.588;2023-05-10T01:59:59;98.03;;;49.75;;
22250;SDS011;59348;52.158;5.588;2023-05-10T02:02:28;89.53;;;48.35;;
22250;SDS011;59348;52.158;5.588;2023-05-10T02:04:58;91.55;;;48.75;;
22250;SDS011;59348;52.158;5.588;2023-05-10T02:07:28;90.18;;;48.10;;
22250;SDS011;59348;52.158;5.588;2023-05-10T02:09:55;94.40;;;49.42;;
22250;SDS011;59348;52.158;5.588;2023-05-10T02:12:23;93.22;;;48.75;;
22250;SDS011;59348;52.158;5.588;2023-05-10T02:14:51;92.55;;;49.03;;
22250;SDS011;59348;52.158;5.588;2023-05-10T02:17:19;92.90;;;48.65;;
22250;SDS011;59348;52.158;5.588;2023-05-10T02:19:46;89.57;;;46.75;;
22250;SDS011;59348;52.158;5.588;2023-05-10T02:22:16;84.60;;;45.90;;
22250;SDS011;59348;52.158;5.588;2023-05-10T02:24:44;80.93;;;45.13;;
22250;SDS011;59348;52.158;5.588;2023-05-10T02:27:12;84.82;;;45.33;;
22250;SDS011;59348;52.158;5.588;2023-05-10T02:29:41;87.75;;;47.05;;
22250;SDS011;59348;52.158;5.588;2023-05-10T02:32:08;83.97;;;46.30;;
22250;SDS011;59348;52.158;5.588;2023-05-10T02:34:37;86.68;;;46.45;;
22250;SDS011;59348;52.158;5.588;2023-05-10T02:37:04;81.10;;;45.10;;
22250;SDS011;59348;52.158;5.588;2023-05-10T02:39:34;83.07;;;46.55;;
22250;SDS011;59348;52.158;5.588;2023-05-10T02:42:01;85.00;;;45.85;;
22250;SDS011;59348;52.158;5.588;2023-05-10T02:44:28;86.53;;;45.72;;
22250;SDS011;59348;52.158;5.588;2023-05-10T02:46:57;84.97;;;45.90;;
22250;SDS011;59348;52.158;5.588;2023-05-10T02:49:24;81.78;;;45.35;;
22250;SDS011;59348;52.158;5.588;2023-05-10T02:51:54;82.82;;;46.28;;
22250;SDS011;59348;52.158;5.588;2023-05-10T02:54:24;85.25;;;45.42;;
22250;SDS011;59348;52.158;5.588;2023-05-10T02:56:56;82.22;;;44.28;;
22250;SDS011;59348;52.158;5.588;2023-05-10T02:59:24;84.72;;;45.65;;
22250;SDS011;59348;52.158;5.588;2023-05-10T03:01:51;88.53;;;46.15;;
22250;SDS011;59348;52.158;5.588;2023-05-10T03:04:19;85.93;;;45.75;;
22250;SDS011;59348;52.158;5.588;2023-05-10T03:06:46;75.15;;;42.83;;
22250;SDS011;59348;52.158;5.588;2023-05-10T03:09:14;81.13;;;45.30;;
22250;SDS011;59348;52.158;5.588;2023-05-10T03:11:44;82.28;;;44.33;;
22250;SDS011;59348;52.158;5.588;2023-05-10T03:14:16;86.97;;;45.75;;
22250;SDS011;59348;52.158;5.588;2023-05-10T03:16:52;78.03;;;44.33;;
22250;SDS011;59348;52.158;5.588;2023-05-10T03:19:22;87.57;;;45.00;;
22250;SDS011;59348;52.158;5.588;2023-05-10T03:21:52;91.18;;;46.05;;
22250;SDS011;59348;52.158;5.588;2023-05-10T03:24:20;85.88;;;46.08;;
22250;SDS011;59348;52.158;5.588;2023-05-10T03:26:48;91.15;;;45.92;;
22250;SDS011;59348;52.158;5.588;2023-05-10T03:29:17;94.28;;;46.58;;
22250;SDS011;59348;52.158;5.588;2023-05-10T03:31:44;92.32;;;46.78;;
22250;SDS011;59348;52.158;5.588;2023-05-10T03:34:12;92.85;;;46.35;;
22250;SDS011;59348;52.158;5.588;2023-05-10T03:36:39;96.25;;;46.83;;
22250;SDS011;59348;52.158;5.588;2023-05-10T03:39:06;103.15;;;48.65;;
22250;SDS011;59348;52.158;5.588;2023-05-10T03:41:34;99.35;;;48.13;;
22250;SDS011;59348;52.158;5.588;2023-05-10T03:44:01;99.32;;;49.17;;
22250;SDS011;59348;52.158;5.588;2023-05-10T03:46:29;110.28;;;49.08;;
22250;SDS011;59348;52.158;5.588;2023-05-10T03:48:57;110.57;;;49.58;;
22250;SDS011;59348;52.158;5.588;2023-05-10T03:51:26;122.63;;;50.67;;
22250;SDS011;59348;52.158;5.588;2023-05-10T03:53:54;113.40;;;50.13;;
22250;SDS011;59348;52.158;5.588;2023-05-10T03:56:21;112.88;;;49.60;;
22250;SDS011;59348;52.158;5.588;2023-05-10T03:58:49;126.97;;;50.33;;
22250;SDS011;59348;52.158;5.588;2023-05-10T04:01:16;135.18;;;51.70;;
22250;SDS011;59348;52.158;5.588;2023-05-10T04:03:44;128.43;;;52.00;;
22250;SDS011;59348;52.158;5.588;2023-05-10T04:06:12;133.57;;;53.58;;
22250;SDS011;59348;52.158;5.588;2023-05-10T04:08:39;127.25;;;50.10;;
22250;SDS011;59348;52.158;5.588;2023-05-10T04:11:07;135.05;;;51.65;;
22250;SDS011;59348;52.158;5.588;2023-05-10T04:13:35;134.07;;;51.42;;
22250;SDS011;59348;52.158;5.588;2023-05-10T04:16:03;134.32;;;50.20;;
22250;SDS011;59348;52.158;5.588;2023-05-10T04:18:32;132.30;;;50.22;;
22250;SDS011;59348;52.158;5.588;2023-05-10T04:21:02;125.75;;;48.97;;
22250;SDS011;59348;52.158;5.588;2023-05-10T04:23:29;125.78;;;48.97;;
22250;SDS011;59348;52.158;5.588;2023-05-10T04:25:59;128.23;;;50.28;;
22250;SDS011;59348;52.158;5.588;2023-05-10T04:28:28;133.93;;;51.30;;
22250;SDS011;59348;52.158;5.588;2023-05-10T04:31:00;133.75;;;50.40;;
22250;SDS011;59348;52.158;5.588;2023-05-10T04:33:27;137.95;;;51.05;;
22250;SDS011;59348;52.158;5.588;2023-05-10T04:35:57;133.18;;;51.42;;
22250;SDS011;59348;52.158;5.588;2023-05-10T04:38:26;133.57;;;51.75;;
22250;SDS011;59348;52.158;5.588;2023-05-10T04:40:53;128.05;;;50.15;;
22250;SDS011;59348;52.158;5.588;2023-05-10T04:43:23;120.30;;;49.28;;
22250;SDS011;59348;52.158;5.588;2023-05-10T04:45:50;130.25;;;50.85;;
22250;SDS011;59348;52.158;5.588;2023-05-10T04:48:18;128.73;;;48.90;;
22250;SDS011;59348;52.158;5.588;2023-05-10T04:50:45;133.15;;;50.35;;
22250;SDS011;59348;52.158;5.588;2023-05-10T04:53:12;129.77;;;48.53;;
22250;SDS011;59348;52.158;5.588;2023-05-10T04:55:41;118.05;;;47.67;;
22250;SDS011;59348;52.158;5.588;2023-05-10T04:58:11;125.10;;;48.58;;
22250;SDS011;59348;52.158;5.588;2023-05-10T05:00:39;119.80;;;47.55;;
22250;SDS011;59348;52.158;5.588;2023-05-10T05:03:06;115.07;;;46.42;;
22250;SDS011;59348;52.158;5.588;2023-05-10T05:05:34;128.52;;;48.10;;
22250;SDS011;59348;52.158;5.588;2023-05-10T05:08:02;125.28;;;49.25;;
22250;SDS011;59348;52.158;5.588;2023-05-10T05:10:29;128.23;;;48.17;;
22250;SDS011;59348;52.158;5.588;2023-05-10T05:12:57;124.05;;;48.72;;
22250;SDS011;59348;52.158;5.588;2023-05-10T05:15:25;130.10;;;48.35;;
22250;SDS011;59348;52.158;5.588;2023-05-10T05:17:52;121.35;;;48.45;;
22250;SDS011;59348;52.158;5.588;2023-05-10T05:20:19;122.60;;;47.55;;
22250;SDS011;59348;52.158;5.588;2023-05-10T05:22:47;134.65;;;49.75;;
22250;SDS011;59348;52.158;5.588;2023-05-10T05:25:15;120.03;;;47.10;;
22250;SDS011;59348;52.158;5.588;2023-05-10T05:27:42;125.88;;;47.80;;
22250;SDS011;59348;52.158;5.588;2023-05-10T05:30:11;120.85;;;46.70;;
22250;SDS011;59348;52.158;5.588;2023-05-10T05:32:39;129.75;;;47.75;;
22250;SDS011;59348;52.158;5.588;2023-05-10T05:35:06;120.93;;;47.65;;
22250;SDS011;59348;52.158;5.588;2023-05-10T05:37:33;126.45;;;46.78;;
22250;SDS011;59348;52.158;5.588;2023-05-10T05:40:02;131.52;;;49.63;;
22250;SDS011;59348;52.158;5.588;2023-05-10T05:42:30;126.70;;;48.17;;
22250;SDS011;59348;52.158;5.588;2023-05-10T05:44:58;126.07;;;49.38;;
22250;SDS011;59348;52.158;5.588;2023-05-10T05:47:26;139.57;;;49.25;;
22250;SDS011;59348;52.158;5.588;2023-05-10T05:49:54;132.27;;;48.63;;
22250;SDS011;59348;52.158;5.588;2023-05-10T05:52:21;132.80;;;49.72;;
22250;SDS011;59348;52.158;5.588;2023-05-10T05:54:48;131.60;;;48.90;;
22250;SDS011;59348;52.158;5.588;2023-05-10T05:57:16;138.68;;;48.88;;
22250;SDS011;59348;52.158;5.588;2023-05-10T05:59:43;138.52;;;50.35;;
22250;SDS011;59348;52.158;5.588;2023-05-10T06:02:11;135.90;;;50.95;;
22250;SDS011;59348;52.158;5.588;2023-05-10T06:04:39;144.68;;;53.20;;
22250;SDS011;59348;52.158;5.588;2023-05-10T06:07:07;139.25;;;52.10;;
22250;SDS011;59348;52.158;5.588;2023-05-10T06:09:34;137.23;;;52.38;;
22250;SDS011;59348;52.158;5.588;2023-05-10T06:12:01;134.20;;;53.30;;
22250;SDS011;59348;52.158;5.588;2023-05-10T06:14:28;133.55;;;53.25;;
22250;SDS011;59348;52.158;5.588;2023-05-10T06:16:56;136.55;;;53.90;;
22250;SDS011;59348;52.158;5.588;2023-05-10T06:19:25;133.70;;;53.80;;
22250;SDS011;59348;52.158;5.588;2023-05-10T06:21:53;137.70;;;54.75;;
22250;SDS011;59348;52.158;5.588;2023-05-10T06:24:21;125.28;;;52.65;;
22250;SDS011;59348;52.158;5.588;2023-05-10T06:26:48;124.97;;;52.38;;
22250;SDS011;59348;52.158;5.588;2023-05-10T06:29:16;120.45;;;52.97;;
22250;SDS011;59348;52.158;5.588;2023-05-10T06:31:43;114.25;;;52.10;;
22250;SDS011;59348;52.158;5.588;2023-05-10T06:34:10;119.57;;;51.50;;
22250;SDS011;59348;52.158;5.588;2023-05-10T06:36:38;112.05;;;52.03;;
22250;SDS011;59348;52.158;5.588;2023-05-10T06:39:07;108.05;;;50.92;;
22250;SDS011;59348;52.158;5.588;2023-05-10T06:41:36;97.88;;;47.67;;
22250;SDS011;59348;52.158;5.588;2023-05-10T06:44:04;113.88;;;49.45;;
22250;SDS011;59348;52.158;5.588;2023-05-10T06:46:31;109.32;;;47.35;;
22250;SDS011;59348;52.158;5.588;2023-05-10T06:48:58;106.55;;;46.22;;
22250;SDS011;59348;52.158;5.588;2023-05-10T06:51:26;101.07;;;46.78;;
22250;SDS011;59348;52.158;5.588;2023-05-10T06:53:53;108.47;;;47.95;;
22250;SDS011;59348;52.158;5.588;2023-05-10T06:56:22;112.28;;;48.60;;
22250;SDS011;59348;52.158;5.588;2023-05-10T06:58:49;105.07;;;47.80;;
22250;SDS011;59348;52.158;5.588;2023-05-10T07:01:16;97.95;;;44.88;;
22250;SDS011;59348;52.158;5.588;2023-05-10T07:03:44;87.57;;;41.25;;
22250;SDS011;59348;52.158;5.588;2023-05-10T07:06:11;94.07;;;41.33;;
22250;SDS011;59348;52.158;5.588;2023-05-10T07:08:38;81.65;;;40.25;;
22250;SDS011;59348;52.158;5.588;2023-05-10T07:11:06;83.10;;;38.95;;
22250;SDS011;59348;52.158;5.588;2023-05-10T07:13:34;75.70;;;38.08;;
22250;SDS011;59348;52.158;5.588;2023-05-10T07:16:04;66.80;;;35.65;;
22250;SDS011;59348;52.158;5.588;2023-05-10T07:18:34;65.68;;;34.60;;
22250;SDS011;59348;52.158;5.588;2023-05-10T07:21:01;65.60;;;34.85;;
22250;SDS011;59348;52.158;5.588;2023-05-10T07:23:28;58.42;;;33.38;;
22250;SDS011;59348;52.158;5.588;2023-05-10T07:25:56;59.10;;;33.97;;
22250;SDS011;59348;52.158;5.588;2023-05-10T07:28:23;54.40;;;32.15;;
22250;SDS011;59348;52.158;5.588;2023-05-10T07:30:52;51.55;;;30.42;;
22250;SDS011;59348;52.158;5.588;2023-05-10T07:33:19;51.80;;;30.60;;
22250;SDS011;59348;52.158;5.588;2023-05-10T07:35:49;50.60;;;29.77;;
22250;SDS011;59348;52.158;5.588;2023-05-10T07:38:17;42.90;;;27.00;;
22250;SDS011;59348;52.158;5.588;2023-05-10T07:40:44;42.95;;;26.17;;
22250;SDS011;59348;52.158;5.588;2023-05-10T07:43:11;44.40;;;27.35;;
22250;SDS011;59348;52.158;5.588;2023-05-10T07:45:38;42.55;;;26.05;;
22250;SDS011;59348;52.158;5.588;2023-05-10T07:48:07;40.97;;;26.05;;
22250;SDS011;59348;52.158;5.588;2023-05-10T07:50:34;40.00;;;23.92;;
22250;SDS011;59348;52.158;5.588;2023-05-10T07:53:01;43.78;;;25.77;;
22250;SDS011;59348;52.158;5.588;2023-05-10T07:55:29;39.88;;;25.50;;
22250;SDS011;59348;52.158;5.588;2023-05-10T07:57:56;36.15;;;23.23;;
22250;SDS011;59348;52.158;5.588;2023-05-10T08:00:26;32.55;;;21.40;;
22250;SDS011;59348;52.158;5.588;2023-05-10T08:02:53;32.78;;;20.73;;
22250;SDS011;59348;52.158;5.588;2023-05-10T08:05:23;31.88;;;20.98;;
22250;SDS011;59348;52.158;5.588;2023-05-10T08:07:50;31.50;;;20.20;;
22250;SDS011;59348;52.158;5.588;2023-05-10T08:10:17;35.70;;;20.25;;
22250;SDS011;59348;52.158;5.588;2023-05-10T08:12:45;31.42;;;20.42;;
22250;SDS011;59348;52.158;5.588;2023-05-10T08:15:12;33.95;;;20.33;;
22250;SDS011;59348;52.158;5.588;2023-05-10T08:17:39;39.83;;;22.00;;
22250;SDS011;59348;52.158;5.588;2023-05-10T08:20:08;31.40;;;19.42;;
22250;SDS011;59348;52.158;5.588;2023-05-10T08:22:38;28.70;;;20.45;;
22250;SDS011;59348;52.158;5.588;2023-05-10T08:25:06;31.00;;;20.60;;
22250;SDS011;59348;52.158;5.588;2023-05-10T08:27:33;29.10;;;18.63;;
22250;SDS011;59348;52.158;5.588;2023-05-10T08:30:00;27.58;;;17.58;;
22250;SDS011;59348;52.158;5.588;2023-05-10T08:32:28;23.95;;;17.25;;
22250;SDS011;59348;52.158;5.588;2023-05-10T08:34:55;26.98;;;16.95;;
22250;SDS011;59348;52.158;5.588;2023-05-10T08:37:23;26.92;;;18.00;;
22250;SDS011;59348;52.158;5.588;2023-05-10T08:39:51;25.75;;;16.70;;
22250;SDS011;59348;52.158;5.588;2023-05-10T08:42:20;23.88;;;17.35;;
22250;SDS011;59348;52.158;5.588;2023-05-10T08:44:49;24.75;;;16.40;;
22250;SDS011;59348;52.158;5.588;2023-05-10T08:47:18;24.30;;;17.10;;
22250;SDS011;59348;52.158;5.588;2023-05-10T08:49:45;28.52;;;17.48;;
22250;SDS011;59348;52.158;5.588;2023-05-10T08:52:16;24.48;;;16.70;;
22250;SDS011;59348;52.158;5.588;2023-05-10T08:54:44;22.75;;;15.90;;
22250;SDS011;59348;52.158;5.588;2023-05-10T08:57:13;25.25;;;16.98;;
22250;SDS011;59348;52.158;5.588;2023-05-10T08:59:41;25.15;;;17.30;;
22250;SDS011;59348;52.158;5.588;2023-05-10T09:02:09;27.63;;;18.67;;
22250;SDS011;59348;52.158;5.588;2023-05-10T09:04:38;27.33;;;18.98;;
22250;SDS011;59348;52.158;5.588;2023-05-10T09:07:06;28.35;;;18.45;;
22250;SDS011;59348;52.158;5.588;2023-05-10T09:09:33;26.35;;;18.10;;
22250;SDS011;59348;52.158;5.588;2023-05-10T09:12:01;23.40;;;16.40;;
22250;SDS011;59348;52.158;5.588;2023-05-10T09:14:31;22.95;;;16.83;;
22250;SDS011;59348;52.158;5.588;2023-05-10T09:17:01;23.02;;;15.95;;
22250;SDS011;59348;52.158;5.588;2023-05-10T09:19:28;27.08;;;17.17;;
22250;SDS011;59348;52.158;5.588;2023-05-10T09:21:56;24.33;;;15.52;;
22250;SDS011;59348;52.158;5.588;2023-05-10T09:24:25;20.23;;;14.73;;
22250;SDS011;59348;52.158;5.588;2023-05-10T09:26:52;21.27;;;15.55;;
22250;SDS011;59348;52.158;5.588;2023-05-10T09:29:20;20.55;;;15.00;;
22250;SDS011;59348;52.158;5.588;2023-05-10T09:31:49;20.65;;;15.93;;
22250;SDS011;59348;52.158;5.588;2023-05-10T09:34:18;19.08;;;15.38;;
22250;SDS011;59348;52.158;5.588;2023-05-10T09:36:53;19.77;;;15.40;;
22250;SDS011;59348;52.158;5.588;2023-05-10T09:39:21;17.48;;;13.30;;
22250;SDS011;59348;52.158;5.588;2023-05-10T09:41:57;19.33;;;13.68;;
22250;SDS011;59348;52.158;5.588;2023-05-10T09:44:25;16.92;;;13.65;;
22250;SDS011;59348;52.158;5.588;2023-05-10T09:46:55;17.10;;;12.75;;
22250;SDS011;59348;52.158;5.588;2023-05-10T09:49:22;17.27;;;12.77;;
22250;SDS011;59348;52.158;5.588;2023-05-10T09:51:59;20.30;;;13.45;;
22250;SDS011;59348;52.158;5.588;2023-05-10T09:54:27;17.83;;;13.40;;
22250;SDS011;59348;52.158;5.588;2023-05-10T09:56:54;16.25;;;13.38;;
22250;SDS011;59348;52.158;5.588;2023-05-10T09:59:22;14.38;;;11.93;;
22250;SDS011;59348;52.158;5.588;2023-05-10T10:01:52;17.92;;;11.85;;
22250;SDS011;59348;52.158;5.588;2023-05-10T10:04:21;14.95;;;11.18;;
22250;SDS011;59348;52.158;5.588;2023-05-10T10:09:32;13.70;;;9.00;;
22250;SDS011;59348;52.158;5.588;2023-05-10T10:12:00;13.90;;;10.15;;
22250;SDS011;59348;52.158;5.588;2023-05-10T10:14:27;11.40;;;9.68;;
22250;SDS011;59348;52.158;5.588;2023-05-10T10:16:54;14.35;;;9.73;;
22250;SDS011;59348;52.158;5.588;2023-05-10T10:19:23;11.07;;;8.63;;
22250;SDS011;59348;52.158;5.588;2023-05-10T10:21:50;10.65;;;8.45;;
22250;SDS011;59348;52.158;5.588;2023-05-10T10:24:18;11.20;;;7.15;;
22250;SDS011;59348;52.158;5.588;2023-05-10T10:26:45;10.35;;;7.25;;
22250;SDS011;59348;52.158;5.588;2023-05-10T10:29:17;11.52;;;7.95;;
22250;SDS011;59348;52.158;5.588;2023-05-10T10:31:46;10.85;;;8.07;;
22250;SDS011;59348;52.158;5.588;2023-05-10T10:34:18;11.82;;;8.20;;
22250;SDS011;59348;52.158;5.588;2023-05-10T10:36:50;10.23;;;7.55;;
22250;SDS011;59348;52.158;5.588;2023-05-10T10:39:17;8.82;;;6.85;;
22250;SDS011;59348;52.158;5.588;2023-05-10T10:41:49;9.40;;;7.90;;
22250;SDS011;59348;52.158;5.588;2023-05-10T10:46:59;11.32;;;7.45;;
22250;SDS011;59348;52.158;5.588;2023-05-10T10:49:27;10.45;;;7.50;;
22250;SDS011;59348;52.158;5.588;2023-05-10T10:54:38;11.50;;;8.00;;
22250;SDS011;59348;52.158;5.588;2023-05-10T10:57:10;8.95;;;7.55;;
22250;SDS011;59348;52.158;5.588;2023-05-10T10:59:41;10.85;;;6.57;;
22250;SDS011;59348;52.158;5.588;2023-05-10T11:02:09;11.18;;;6.82;;
22250;SDS011;59348;52.158;5.588;2023-05-10T11:04:43;8.23;;;6.72;;
22250;SDS011;59348;52.158;5.588;2023-05-10T11:07:19;6.78;;;6.00;;
22250;SDS011;59348;52.158;5.588;2023-05-10T11:09:47;6.88;;;5.53;;
22250;SDS011;59348;52.158;5.588;2023-05-10T11:12:15;7.03;;;5.95;;
22250;SDS011;59348;52.158;5.588;2023-05-10T11:14:42;8.18;;;6.50;;
22250;SDS011;59348;52.158;5.588;2023-05-10T11:25:20;10.93;;;8.18;;
22250;SDS011;59348;52.158;5.588;2023-05-10T11:27:53;11.43;;;8.77;;
22250;SDS011;59348;52.158;5.588;2023-05-10T11:30:22;10.98;;;8.40;;
22250;SDS011;59348;52.158;5.588;2023-05-10T11:32:49;12.13;;;8.60;;
22250;SDS011;59348;52.158;5.588;2023-05-10T11:35:18;12.63;;;8.85;;
22250;SDS011;59348;52.158;5.588;2023-05-10T11:37:47;14.18;;;9.73;;
22250;SDS011;59348;52.158;5.588;2023-05-10T11:40:15;10.02;;;8.23;;
22250;SDS011;59348;52.158;5.588;2023-05-10T11:42:43;9.93;;;8.45;;
22250;SDS011;59348;52.158;5.588;2023-05-10T11:45:11;10.90;;;8.90;;
22250;SDS011;59348;52.158;5.588;2023-05-10T11:47:38;14.07;;;8.35;;
22250;SDS011;59348;52.158;5.588;2023-05-10T11:50:08;12.15;;;8.55;;
22250;SDS011;59348;52.158;5.588;2023-05-10T11:52:35;10.05;;;8.15;;
22250;SDS011;59348;52.158;5.588;2023-05-10T11:55:03;11.05;;;8.20;;
22250;SDS011;59348;52.158;5.588;2023-05-10T11:57:31;11.60;;;8.85;;
22250;SDS011;59348;52.158;5.588;2023-05-10T11:59:59;9.45;;;7.25;;
22250;SDS011;59348;52.158;5.588;2023-05-10T12:02:28;9.63;;;6.72;;
22250;SDS011;59348;52.158;5.588;2023-05-10T12:04:56;9.70;;;6.78;;
22250;SDS011;59348;52.158;5.588;2023-05-10T12:07:23;7.68;;;6.43;;
22250;SDS011;59348;52.158;5.588;2023-05-10T12:12:35;8.77;;;6.40;;
22250;SDS011;59348;52.158;5.588;2023-05-10T12:15:04;7.70;;;6.50;;
22250;SDS011;59348;52.158;5.588;2023-05-10T12:17:32;8.32;;;5.95;;
22250;SDS011;59348;52.158;5.588;2023-05-10T12:20:12;8.15;;;6.72;;
22250;SDS011;59348;52.158;5.588;2023-05-10T12:22:39;10.65;;;6.38;;
22250;SDS011;59348;52.158;5.588;2023-05-10T12:25:08;9.63;;;6.88;;
22250;SDS011;59348;52.158;5.588;2023-05-10T12:27:36;7.90;;;6.72;;
22250;SDS011;59348;52.158;5.588;2023-05-10T12:30:05;12.23;;;7.40;;
22250;SDS011;59348;52.158;5.588;2023-05-10T12:32:39;8.48;;;7.18;;
22250;SDS011;59348;52.158;5.588;2023-05-10T12:35:07;9.43;;;7.75;;
22250;SDS011;59348;52.158;5.588;2023-05-10T12:37:35;11.30;;;7.75;;
22250;SDS011;59348;52.158;5.588;2023-05-10T12:40:05;10.20;;;7.38;;
22250;SDS011;59348;52.158;5.588;2023-05-10T12:42:33;10.57;;;7.60;;
22250;SDS011;59348;52.158;5.588;2023-05-10T12:45:05;12.32;;;7.95;;
22250;SDS011;59348;52.158;5.588;2023-05-10T12:47:35;8.82;;;7.32;;
22250;SDS011;59348;52.158;5.588;2023-05-10T12:50:03;9.27;;;7.63;;
22250;SDS011;59348;52.158;5.588;2023-05-10T12:52:31;8.88;;;7.07;;
22250;SDS011;59348;52.158;5.588;2023-05-10T12:54:58;7.93;;;5.68;;
22250;SDS011;59348;52.158;5.588;2023-05-10T12:57:26;9.82;;;5.32;;
22250;SDS011;59348;52.158;5.588;2023-05-10T12:59:54;8.63;;;5.97;;
22250;SDS011;59348;52.158;5.588;2023-05-10T13:02:22;7.32;;;5.82;;
22250;SDS011;59348;52.158;5.588;2023-05-10T13:04:50;7.97;;;5.70;;
22250;SDS011;59348;52.158;5.588;2023-05-10T13:07:18;9.52;;;6.18;;
22250;SDS011;59348;52.158;5.588;2023-05-10T13:09:46;10.57;;;5.70;;
22250;SDS011;59348;52.158;5.588;2023-05-10T13:12:13;8.98;;;4.82;;
22250;SDS011;59348;52.158;5.588;2023-05-10T13:14:41;7.57;;;4.88;;
22250;SDS011;59348;52.158;5.588;2023-05-10T13:17:08;8.38;;;4.32;;
22250;SDS011;59348;52.158;5.588;2023-05-10T13:19:36;8.50;;;4.63;;
22250;SDS011;59348;52.158;5.588;2023-05-10T13:22:04;8.30;;;4.20;;
22250;SDS011;59348;52.158;5.588;2023-05-10T13:24:33;6.45;;;3.80;;
22250;SDS011;59348;52.158;5.588;2023-05-10T13:27:00;9.20;;;3.95;;
22250;SDS011;59348;52.158;5.588;2023-05-10T13:29:27;7.28;;;3.47;;
22250;SDS011;59348;52.158;5.588;2023-05-10T13:31:54;5.68;;;3.88;;
22250;SDS011;59348;52.158;5.588;2023-05-10T13:34:22;5.63;;;4.15;;
22250;SDS011;59348;52.158;5.588;2023-05-10T13:36:51;5.28;;;3.40;;
22250;SDS011;59348;52.158;5.588;2023-05-10T13:39:19;6.93;;;3.65;;
22250;SDS011;59348;52.158;5.588;2023-05-10T13:41:47;5.00;;;3.35;;
22250;SDS011;59348;52.158;5.588;2023-05-10T13:44:15;5.32;;;3.15;;
22250;SDS011;59348;52.158;5.588;2023-05-10T13:46:43;4.47;;;3.45;;
22250;SDS011;59348;52.158;5.588;2023-05-10T13:49:10;4.22;;;2.90;;
22250;SDS011;59348;52.158;5.588;2023-05-10T13:51:37;4.32;;;3.58;;
22250;SDS011;59348;52.158;5.588;2023-05-10T13:54:06;6.75;;;3.47;;
22250;SDS011;59348;52.158;5.588;2023-05-10T13:56:33;10.80;;;6.72;;
22250;SDS011;59348;52.158;5.588;2023-05-10T13:59:01;10.75;;;7.45;;
22250;SDS011;59348;52.158;5.588;2023-05-10T14:01:28;12.30;;;8.52;;
22250;SDS011;59348;52.158;5.588;2023-05-10T14:03:56;10.50;;;7.90;;
22250;SDS011;59348;52.158;5.588;2023-05-10T14:06:23;11.95;;;9.02;;
22250;SDS011;59348;52.158;5.588;2023-05-10T14:08:52;12.75;;;8.40;;
22250;SDS011;59348;52.158;5.588;2023-05-10T14:11:21;11.02;;;8.18;;
22250;SDS011;59348;52.158;5.588;2023-05-10T14:13:48;11.95;;;7.53;;
22250;SDS011;59348;52.158;5.588;2023-05-10T14:16:15;11.00;;;8.05;;
22250;SDS011;59348;52.158;5.588;2023-05-10T14:18:45;13.30;;;7.38;;
22250;SDS011;59348;52.158;5.588;2023-05-10T14:21:13;17.85;;;8.15;;
22250;SDS011;59348;52.158;5.588;2023-05-10T14:23:40;12.02;;;8.05;;
22250;SDS011;59348;52.158;5.588;2023-05-10T14:26:07;13.75;;;8.05;;
22250;SDS011;59348;52.158;5.588;2023-05-10T14:28:36;11.32;;;8.63;;
22250;SDS011;59348;52.158;5.588;2023-05-10T14:31:03;15.00;;;8.63;;
22250;SDS011;59348;52.158;5.588;2023-05-10T14:33:31;15.45;;;8.75;;
22250;SDS011;59348;52.158;5.588;2023-05-10T14:35:58;12.63;;;8.68;;
22250;SDS011;59348;52.158;5.588;2023-05-10T14:38:25;19.70;;;9.30;;
22250;SDS011;59348;52.158;5.588;2023-05-10T14:40:53;14.73;;;8.82;;
22250;SDS011;59348;52.158;5.588;2023-05-10T14:43:20;12.00;;;9.00;;
22250;SDS011;59348;52.158;5.588;2023-05-10T14:45:49;15.10;;;8.90;;
22250;SDS011;59348;52.158;5.588;2023-05-10T14:48:16;15.48;;;8.60;;
22250;SDS011;59348;52.158;5.588;2023-05-10T14:50:44;13.20;;;8.13;;